sensor_id;sensor_type;location;lat;lon;timestamp;pressure;altitude;pressure_sealevel;temperature;humidity
250;BME280;109;19.806;-70.704;2023-03-18T00:00:08;101747.78;;;21.72;59.78
250;BME280;109;19.806;-70.704;2023-03-18T00:02:37;101744.19;;;21.73;59.42
250;BME280;109;19.806;-70.704;2023-03-18T00:05:06;101750.56;;;21.68;59.54
250;BME280;109;19.806;-70.704;2023-03-18T00:07:34;101756.31;;;21.49;60.10
250;BME280;109;19.806;-70.704;2023-03-18T00:10:01;101762.16;;;21.65;59.52
250;BME280;109;19.806;-70.704;2023-03-18T00:12:28;101755.94;;;21.29;59.37
250;BME280;109;19.806;-70.704;2023-03-18T00:14:56;101764.69;;;21.34;59.65
250;BME280;109;19.806;-70.704;2023-03-18T00:17:29;101760.31;;;21.32;59.50
250;BME280;109;19.806;-70.704;2023-03-18T00:19:55;101767.09;;;21.46;59.47
250;BME280;109;19.806;-70.704;2023-03-18T00:22:29;101765.22;;;21.48;59.21
250;BME280;109;19.806;-70.704;2023-03-18T00:24:55;101773.44;;;21.39;59.41
250;BME280;109;19.806;-70.704;2023-03-18T00:27:29;101779.91;;;21.29;60.10
250;BME280;109;19.806;-70.704;2023-03-18T00:29:56;101770.66;;;21.45;59.16
250;BME280;109;19.806;-70.704;2023-03-18T00:32:30;101780.66;;;21.34;59.56
250;BME280;109;19.806;-70.704;2023-03-18T00:34:57;101783.47;;;21.28;59.43
250;BME280;109;19.806;-70.704;2023-03-18T00:37:31;101788.63;;;21.36;59.57
250;BME280;109;19.806;-70.704;2023-03-18T00:40:00;101790.66;;;21.24;60.12
250;BME280;109;19.806;-70.704;2023-03-18T00:42:39;101798.88;;;21.14;59.85
250;BME280;109;19.806;-70.704;2023-03-18T00:45:19;101803.00;;;21.29;59.88
250;BME280;109;19.806;-70.704;2023-03-18T00:47:46;101799.41;;;21.30;59.76
250;BME280;109;19.806;-70.704;2023-03-18T00:50:21;101808.91;;;21.41;59.25
250;BME280;109;19.806;-70.704;2023-03-18T00:52:47;101806.28;;;21.40;59.33
250;BME280;109;19.806;-70.704;2023-03-18T00:55:21;101814.50;;;21.31;59.58
250;BME280;109;19.806;-70.704;2023-03-18T00:57:48;101821.53;;;21.33;59.36
250;BME280;109;19.806;-70.704;2023-03-18T01:00:21;101814.66;;;21.23;59.55
250;BME280;109;19.806;-70.704;2023-03-18T01:03:03;101816.94;;;21.40;59.13
250;BME280;109;19.806;-70.704;2023-03-18T01:05:32;101817.81;;;21.40;59.37
250;BME280;109;19.806;-70.704;2023-03-18T01:08:06;101827.84;;;21.29;59.58
250;BME280;109;19.806;-70.704;2023-03-18T01:10:32;101828.84;;;21.23;59.67
250;BME280;109;19.806;-70.704;2023-03-18T01:13:08;101836.59;;;21.34;59.38
250;BME280;109;19.806;-70.704;2023-03-18T01:15:34;101842.75;;;21.36;59.33
250;BME280;109;19.806;-70.704;2023-03-18T01:18:08;101849.84;;;21.37;58.99
250;BME280;109;19.806;-70.704;2023-03-18T01:20:37;101852.19;;;21.51;58.74
250;BME280;109;19.806;-70.704;2023-03-18T01:23:11;101856.66;;;21.49;58.87
250;BME280;109;19.806;-70.704;2023-03-18T01:25:40;101863.00;;;21.45;58.62
250;BME280;109;19.806;-70.704;2023-03-18T01:28:19;101864.78;;;21.44;58.39
250;BME280;109;19.806;-70.704;2023-03-18T01:30:53;101866.00;;;21.30;58.39
250;BME280;109;19.806;-70.704;2023-03-18T01:33:22;101862.97;;;21.46;58.36
250;BME280;109;19.806;-70.704;2023-03-18T01:35:56;101870.19;;;21.40;59.16
250;BME280;109;19.806;-70.704;2023-03-18T01:38:27;101880.91;;;21.37;58.83
250;BME280;109;19.806;-70.704;2023-03-18T01:41:10;101869.69;;;21.22;59.12
250;BME280;109;19.806;-70.704;2023-03-18T01:43:44;101874.03;;;21.27;58.35
250;BME280;109;19.806;-70.704;2023-03-18T01:49:13;101873.97;;;21.30;58.78
250;BME280;109;19.806;-70.704;2023-03-18T01:51:53;101875.78;;;21.28;58.53
250;BME280;109;19.806;-70.704;2023-03-18T01:54:31;101882.78;;;21.33;58.64
250;BME280;109;19.806;-70.704;2023-03-18T01:57:06;101874.03;;;21.27;58.75
250;BME280;109;19.806;-70.704;2023-03-18T01:59:36;101882.78;;;21.33;58.39
250;BME280;109;19.806;-70.704;2023-03-18T02:02:18;101879.16;;;21.36;58.33
250;BME280;109;19.806;-70.704;2023-03-18T02:04:54;101878.31;;;21.34;58.62
250;BME280;109;19.806;-70.704;2023-03-18T02:07:25;101881.53;;;21.49;58.22
250;BME280;109;19.806;-70.704;2023-03-18T02:10:02;101879.03;;;21.42;58.24
250;BME280;109;19.806;-70.704;2023-03-18T02:12:38;101883.47;;;21.43;58.19
250;BME280;109;19.806;-70.704;2023-03-18T02:15:23;101887.00;;;21.43;58.62
250;BME280;109;19.806;-70.704;2023-03-18T02:18:03;101883.84;;;21.24;58.33
250;BME280;109;19.806;-70.704;2023-03-18T02:23:30;101880.47;;;21.16;58.83
250;BME280;109;19.806;-70.704;2023-03-18T02:28:59;101891.19;;;21.13;58.46
250;BME280;109;19.806;-70.704;2023-03-18T02:31:46;101888.84;;;20.95;59.00
250;BME280;109;19.806;-70.704;2023-03-18T02:34:25;101894.91;;;21.03;58.86
250;BME280;109;19.806;-70.704;2023-03-18T02:37:00;101892.31;;;21.00;58.96
250;BME280;109;19.806;-70.704;2023-03-18T02:39:27;101886.88;;;21.06;59.14
250;BME280;109;19.806;-70.704;2023-03-18T02:42:11;101897.78;;;20.94;58.88
250;BME280;109;19.806;-70.704;2023-03-18T02:44:51;101891.63;;;20.91;59.11
250;BME280;109;19.806;-70.704;2023-03-18T02:47:40;101886.94;;;21.03;58.69
250;BME280;109;19.806;-70.704;2023-03-18T02:50:14;101891.38;;;21.03;59.05
250;BME280;109;19.806;-70.704;2023-03-18T02:52:41;101886.13;;;20.98;59.37
250;BME280;109;19.806;-70.704;2023-03-18T02:55:16;101880.78;;;21.00;59.39
250;BME280;109;19.806;-70.704;2023-03-18T02:57:43;101884.41;;;20.96;59.08
250;BME280;109;19.806;-70.704;2023-03-18T03:00:17;101875.47;;;20.98;59.39
250;BME280;109;19.806;-70.704;2023-03-18T03:03:05;101884.59;;;20.86;58.95
250;BME280;109;19.806;-70.704;2023-03-18T03:05:38;101879.34;;;20.82;59.42
250;BME280;109;19.806;-70.704;2023-03-18T03:08:04;101873.91;;;20.89;59.64
250;BME280;109;19.806;-70.704;2023-03-18T03:10:42;101873.06;;;20.86;59.52
250;BME280;109;19.806;-70.704;2023-03-18T03:13:15;101871.44;;;20.80;59.67
250;BME280;109;19.806;-70.704;2023-03-18T03:15:42;101864.59;;;20.67;60.19
250;BME280;109;19.806;-70.704;2023-03-18T03:18:16;101866.97;;;20.81;59.36
250;BME280;109;19.806;-70.704;2023-03-18T03:20:43;101869.53;;;20.85;59.64
250;BME280;109;19.806;-70.704;2023-03-18T03:23:19;101863.34;;;20.83;59.65
250;BME280;109;19.806;-70.704;2023-03-18T03:25:47;101859.66;;;20.92;59.59
250;BME280;109;19.806;-70.704;2023-03-18T03:28:21;101869.44;;;20.90;60.02
250;BME280;109;19.806;-70.704;2023-03-18T03:30:48;101867.66;;;20.92;60.13
250;BME280;109;19.806;-70.704;2023-03-18T03:33:21;101871.16;;;20.94;59.72
250;BME280;109;19.806;-70.704;2023-03-18T03:35:48;101867.69;;;20.89;59.58
250;BME280;109;19.806;-70.704;2023-03-18T03:38:21;101868.34;;;21.00;59.32
250;BME280;109;19.806;-70.704;2023-03-18T03:40:48;101860.31;;;21.03;59.68
250;BME280;109;19.806;-70.704;2023-03-18T03:43:28;101866.91;;;20.84;59.84
250;BME280;109;19.806;-70.704;2023-03-18T03:46:03;101858.91;;;20.84;60.22
250;BME280;109;19.806;-70.704;2023-03-18T03:48:29;101864.22;;;20.84;60.20
250;BME280;109;19.806;-70.704;2023-03-18T03:51:06;101855.34;;;20.85;59.81
250;BME280;109;19.806;-70.704;2023-03-18T03:53:34;101863.22;;;20.91;59.71
250;BME280;109;19.806;-70.704;2023-03-18T03:56:07;101854.56;;;20.81;60.05
250;BME280;109;19.806;-70.704;2023-03-18T03:58:34;101862.22;;;20.95;60.48
250;BME280;109;19.806;-70.704;2023-03-18T04:01:08;101862.44;;;20.84;60.41
250;BME280;109;19.806;-70.704;2023-03-18T04:03:55;101857.31;;;20.75;60.58
250;BME280;109;19.806;-70.704;2023-03-18T04:06:31;101849.53;;;20.66;60.61
250;BME280;109;19.806;-70.704;2023-03-18T04:09:00;101858.44;;;20.64;60.69
250;BME280;109;19.806;-70.704;2023-03-18T04:11:35;101854.69;;;20.74;61.03
250;BME280;109;19.806;-70.704;2023-03-18T04:14:02;101860.00;;;20.74;60.67
250;BME280;109;19.806;-70.704;2023-03-18T04:16:35;101862.66;;;20.74;60.38
250;BME280;109;19.806;-70.704;2023-03-18T04:19:03;101866.19;;;20.76;60.31
250;BME280;109;19.806;-70.704;2023-03-18T04:21:40;101862.69;;;20.72;60.80
250;BME280;109;19.806;-70.704;2023-03-18T04:24:08;101855.53;;;20.76;60.33
250;BME280;109;19.806;-70.704;2023-03-18T04:26:44;101850.22;;;20.76;60.74
250;BME280;109;19.806;-70.704;2023-03-18T04:29:10;101850.19;;;20.77;60.17
250;BME280;109;19.806;-70.704;2023-03-18T04:31:44;101848.16;;;20.90;59.92
250;BME280;109;19.806;-70.704;2023-03-18T04:34:10;101844.53;;;20.94;59.90
250;BME280;109;19.806;-70.704;2023-03-18T04:36:45;101839.53;;;20.79;60.18
250;BME280;109;19.806;-70.704;2023-03-18T04:39:13;101838.50;;;20.84;60.29
250;BME280;109;19.806;-70.704;2023-03-18T04:41:46;101847.03;;;21.02;59.60
250;BME280;109;19.806;-70.704;2023-03-18T04:44:23;101838.09;;;21.04;59.40
250;BME280;109;19.806;-70.704;2023-03-18T04:46:56;101832.06;;;20.95;59.65
250;BME280;109;19.806;-70.704;2023-03-18T04:49:23;101840.81;;;21.03;59.68
250;BME280;109;19.806;-70.704;2023-03-18T04:51:59;101832.06;;;20.95;59.43
250;BME280;109;19.806;-70.704;2023-03-18T04:54:30;101832.44;;;20.78;59.78
250;BME280;109;19.806;-70.704;2023-03-18T04:57:05;101832.19;;;20.90;59.55
250;BME280;109;19.806;-70.704;2023-03-18T04:59:36;101827.13;;;20.78;59.58
250;BME280;109;19.806;-70.704;2023-03-18T05:02:09;101825.38;;;20.77;59.57
250;BME280;109;19.806;-70.704;2023-03-18T05:04:56;101818.13;;;20.83;59.02
250;BME280;109;19.806;-70.704;2023-03-18T05:07:34;101807.69;;;20.73;59.50
250;BME280;109;19.806;-70.704;2023-03-18T05:10:12;101814.66;;;20.80;59.72
250;BME280;109;19.806;-70.704;2023-03-18T05:12:46;101808.66;;;20.69;59.35
250;BME280;109;19.806;-70.704;2023-03-18T05:15:16;101815.69;;;20.73;59.68
250;BME280;109;19.806;-70.704;2023-03-18T05:17:54;101804.97;;;20.77;59.82
250;BME280;109;19.806;-70.704;2023-03-18T05:20:27;101804.00;;;20.81;59.56
250;BME280;109;19.806;-70.704;2023-03-18T05:22:54;101802.91;;;20.92;59.13
250;BME280;109;19.806;-70.704;2023-03-18T05:25:37;101802.63;;;21.04;59.08
250;BME280;109;19.806;-70.704;2023-03-18T05:28:10;101796.41;;;21.05;58.59
250;BME280;109;19.806;-70.704;2023-03-18T05:30:47;101792.81;;;21.07;58.97
250;BME280;109;19.806;-70.704;2023-03-18T05:33:23;101780.06;;;21.21;58.15
250;BME280;109;19.806;-70.704;2023-03-18T05:35:55;101784.56;;;21.19;58.34
250;BME280;109;19.806;-70.704;2023-03-18T05:38:34;101774.25;;;21.03;58.76
250;BME280;109;19.806;-70.704;2023-03-18T05:41:08;101773.38;;;21.02;58.26
250;BME280;109;19.806;-70.704;2023-03-18T05:43:40;101765.50;;;20.96;58.31
250;BME280;109;19.806;-70.704;2023-03-18T05:46:21;101769.66;;;21.09;58.09
250;BME280;109;19.806;-70.704;2023-03-18T05:49:03;101767.56;;;21.25;57.93
250;BME280;109;19.806;-70.704;2023-03-18T05:51:46;101772.00;;;21.24;57.82
250;BME280;109;19.806;-70.704;2023-03-18T05:54:31;101762.56;;;21.08;58.16
250;BME280;109;19.806;-70.704;2023-03-18T05:57:05;101763.44;;;21.10;57.67
250;BME280;109;19.806;-70.704;2023-03-18T05:59:32;101752.97;;;21.03;58.41
250;BME280;109;19.806;-70.704;2023-03-18T06:02:06;101748.97;;;20.82;58.59
250;BME280;109;19.806;-70.704;2023-03-18T06:04:45;101744.31;;;20.93;58.38
250;BME280;109;19.806;-70.704;2023-03-18T06:07:21;101741.59;;;20.95;58.34
250;BME280;109;19.806;-70.704;2023-03-18T06:09:54;101743.53;;;20.88;58.76
250;BME280;109;19.806;-70.704;2023-03-18T06:12:20;101732.53;;;21.03;58.69
250;BME280;109;19.806;-70.704;2023-03-18T06:14:58;101733.25;;;21.10;58.21
250;BME280;109;19.806;-70.704;2023-03-18T06:17:25;101724.13;;;21.23;58.10
250;BME280;109;19.806;-70.704;2023-03-18T06:19:59;101727.16;;;21.06;58.16
250;BME280;109;19.806;-70.704;2023-03-18T06:22:26;101723.84;;;20.95;58.31
250;BME280;109;19.806;-70.704;2023-03-18T06:25:00;101723.59;;;21.07;58.02
250;BME280;109;19.806;-70.704;2023-03-18T06:27:27;101709.66;;;20.95;58.61
250;BME280;109;19.806;-70.704;2023-03-18T06:30:00;101706.22;;;20.91;58.43
250;BME280;109;19.806;-70.704;2023-03-18T06:32:31;101702.69;;;20.89;58.95
250;BME280;109;19.806;-70.704;2023-03-18T06:35:06;101702.09;;;20.76;59.00
250;BME280;109;19.806;-70.704;2023-03-18T06:37:32;101699.44;;;20.76;59.41
250;BME280;109;19.806;-70.704;2023-03-18T06:40:08;101694.16;;;20.75;59.23
250;BME280;109;19.806;-70.704;2023-03-18T06:42:43;101694.94;;;20.80;59.12
250;BME280;109;19.806;-70.704;2023-03-18T06:45:35;101694.03;;;20.81;58.92
250;BME280;109;19.806;-70.704;2023-03-18T06:48:09;101690.31;;;20.88;59.27
250;BME280;109;19.806;-70.704;2023-03-18T06:50:40;101688.63;;;20.84;58.72
250;BME280;109;19.806;-70.704;2023-03-18T06:53:21;101679.94;;;20.76;59.15
250;BME280;109;19.806;-70.704;2023-03-18T06:55:55;101680.88;;;20.73;58.91
250;BME280;109;19.806;-70.704;2023-03-18T06:58:24;101668.53;;;20.69;58.68
250;BME280;109;19.806;-70.704;2023-03-18T07:01:10;101664.19;;;20.67;58.74
250;BME280;109;19.806;-70.704;2023-03-18T07:03:50;101657.13;;;20.66;59.29
250;BME280;109;19.806;-70.704;2023-03-18T07:06:17;101658.16;;;20.59;59.12
250;BME280;109;19.806;-70.704;2023-03-18T07:08:50;101650.19;;;20.57;59.50
250;BME280;109;19.806;-70.704;2023-03-18T07:11:18;101647.63;;;20.54;59.50
250;BME280;109;19.806;-70.704;2023-03-18T07:13:51;101647.75;;;20.48;59.18
250;BME280;109;19.806;-70.704;2023-03-18T07:16:26;101647.56;;;20.56;59.78
250;BME280;109;19.806;-70.704;2023-03-18T07:19:02;101646.13;;;20.39;59.64
250;BME280;109;19.806;-70.704;2023-03-18T07:21:30;101646.91;;;20.44;59.24
250;BME280;109;19.806;-70.704;2023-03-18T07:24:03;101640.47;;;20.56;59.17
250;BME280;109;19.806;-70.704;2023-03-18T07:26:30;101639.47;;;20.62;59.13
250;BME280;109;19.806;-70.704;2023-03-18T07:29:04;101636.84;;;20.60;58.92
250;BME280;109;19.806;-70.704;2023-03-18T07:31:31;101639.53;;;20.59;59.21
250;BME280;109;19.806;-70.704;2023-03-18T07:34:04;101643.09;;;20.58;58.89
250;BME280;109;19.806;-70.704;2023-03-18T07:36:30;101640.03;;;20.76;58.64
250;BME280;109;19.806;-70.704;2023-03-18T07:39:06;101636.41;;;20.80;58.34
250;BME280;109;19.806;-70.704;2023-03-18T07:41:41;101641.25;;;20.61;58.52
250;BME280;109;19.806;-70.704;2023-03-18T07:44:20;101648.28;;;20.64;58.55
250;BME280;109;19.806;-70.704;2023-03-18T07:46:53;101644.78;;;20.62;58.14
250;BME280;109;19.806;-70.704;2023-03-18T07:49:20;101648.50;;;20.55;58.28
250;BME280;109;19.806;-70.704;2023-03-18T07:51:53;101648.38;;;20.59;58.55
250;BME280;109;19.806;-70.704;2023-03-18T07:54:19;101639.91;;;20.40;58.44
250;BME280;109;19.806;-70.704;2023-03-18T07:56:53;101637.72;;;20.61;58.42
250;BME280;109;19.806;-70.704;2023-03-18T07:59:19;101632.13;;;20.73;58.32
250;BME280;109;19.806;-70.704;2023-03-18T08:02:01;101627.66;;;20.73;58.21
250;BME280;109;19.806;-70.704;2023-03-18T08:04:41;101633.44;;;20.92;57.85
250;BME280;109;19.806;-70.704;2023-03-18T08:07:09;101634.09;;;20.65;58.59
250;BME280;109;19.806;-70.704;2023-03-18T08:09:42;101636.09;;;20.55;58.35
250;BME280;109;19.806;-70.704;2023-03-18T08:12:08;101641.34;;;20.57;58.58
250;BME280;109;19.806;-70.704;2023-03-18T08:14:42;101639.66;;;20.54;58.43
250;BME280;109;19.806;-70.704;2023-03-18T08:17:09;101633.44;;;20.55;58.42
250;BME280;109;19.806;-70.704;2023-03-18T08:19:42;101636.13;;;20.53;58.18
250;BME280;109;19.806;-70.704;2023-03-18T08:22:09;101637.94;;;20.51;58.21
250;BME280;109;19.806;-70.704;2023-03-18T08:24:42;101622.56;;;20.64;58.42
250;BME280;109;19.806;-70.704;2023-03-18T08:27:10;101632.56;;;20.55;58.70
250;BME280;109;19.806;-70.704;2023-03-18T08:29:43;101621.75;;;20.61;58.16
250;BME280;109;19.806;-70.704;2023-03-18T08:32:10;101630.00;;;20.47;58.55
250;BME280;109;19.806;-70.704;2023-03-18T08:34:43;101626.53;;;20.43;58.42
250;BME280;109;19.806;-70.704;2023-03-18T08:37:10;101627.34;;;20.47;58.20
250;BME280;109;19.806;-70.704;2023-03-18T08:39:43;101628.25;;;20.46;58.05
250;BME280;109;19.806;-70.704;2023-03-18T08:42:17;101635.53;;;20.38;58.37
250;BME280;109;19.806;-70.704;2023-03-18T08:44:51;101632.09;;;20.33;58.42
250;BME280;109;19.806;-70.704;2023-03-18T08:47:17;101636.56;;;20.31;58.50
250;BME280;109;19.806;-70.704;2023-03-18T08:49:51;101637.59;;;20.24;58.79
250;BME280;109;19.806;-70.704;2023-03-18T08:52:18;101644.66;;;20.26;58.99
250;BME280;109;19.806;-70.704;2023-03-18T08:54:51;101638.34;;;20.30;58.46
250;BME280;109;19.806;-70.704;2023-03-18T08:57:17;101642.28;;;20.11;59.26
250;BME280;109;19.806;-70.704;2023-03-18T08:59:51;101654.75;;;20.07;58.80
250;BME280;109;19.806;-70.704;2023-03-18T09:02:39;101646.44;;;20.24;58.83
250;BME280;109;19.806;-70.704;2023-03-18T09:05:12;101652.50;;;20.31;58.77
250;BME280;109;19.806;-70.704;2023-03-18T09:07:39;101654.16;;;20.36;58.27
250;BME280;109;19.806;-70.704;2023-03-18T09:10:13;101660.41;;;20.35;58.67
250;BME280;109;19.806;-70.704;2023-03-18T09:12:44;101660.28;;;20.41;58.09
250;BME280;109;19.806;-70.704;2023-03-18T09:15:18;101657.53;;;20.44;58.34
250;BME280;109;19.806;-70.704;2023-03-18T09:17:54;101667.22;;;20.47;58.56
250;BME280;109;19.806;-70.704;2023-03-18T09:20:21;101661.91;;;20.47;58.21
250;BME280;109;19.806;-70.704;2023-03-18T09:22:54;101668.16;;;20.44;58.28
250;BME280;109;19.806;-70.704;2023-03-18T09:25:21;101676.34;;;20.35;58.54
250;BME280;109;19.806;-70.704;2023-03-18T09:27:54;101675.34;;;20.42;58.15
250;BME280;109;19.806;-70.704;2023-03-18T09:30:21;101676.25;;;20.40;58.32
250;BME280;109;19.806;-70.704;2023-03-18T09:33:02;101673.50;;;20.43;58.10
250;BME280;109;19.806;-70.704;2023-03-18T09:35:38;101667.25;;;20.48;58.24
250;BME280;109;19.806;-70.704;2023-03-18T09:38:05;101677.94;;;20.44;58.14
250;BME280;109;19.806;-70.704;2023-03-18T09:40:54;101691.16;;;20.48;58.36
250;BME280;109;19.806;-70.704;2023-03-18T09:43:37;101698.06;;;20.57;58.41
250;BME280;109;19.806;-70.704;2023-03-18T09:46:25;101692.00;;;20.52;58.13
250;BME280;109;19.806;-70.704;2023-03-18T09:52:12;101698.28;;;20.46;58.16
250;BME280;109;19.806;-70.704;2023-03-18T09:57:48;101701.75;;;20.51;58.24
250;BME280;109;19.806;-70.704;2023-03-18T10:00:30;101704.38;;;20.53;59.00
250;BME280;109;19.806;-70.704;2023-03-18T10:03:20;101707.44;;;20.32;58.88
250;BME280;109;19.806;-70.704;2023-03-18T10:11:44;101696.50;;;20.45;59.25
250;BME280;109;19.806;-70.704;2023-03-18T10:19:54;101713.78;;;20.25;59.42
250;BME280;109;19.806;-70.704;2023-03-18T10:22:39;101709.25;;;20.30;58.79
250;BME280;109;19.806;-70.704;2023-03-18T10:25:17;101718.91;;;20.34;58.58
250;BME280;109;19.806;-70.704;2023-03-18T10:57:21;101762.03;;;20.52;58.66
250;BME280;109;19.806;-70.704;2023-03-18T10:59:49;101770.13;;;20.43;58.76
250;BME280;109;19.806;-70.704;2023-03-18T11:05:03;101777.00;;;20.57;58.16
250;BME280;109;19.806;-70.704;2023-03-18T11:07:30;101773.59;;;20.47;58.66
250;BME280;109;19.806;-70.704;2023-03-18T11:10:13;101776.44;;;20.39;58.42
250;BME280;109;19.806;-70.704;2023-03-18T11:12:41;101770.44;;;20.28;58.67
250;BME280;109;19.806;-70.704;2023-03-18T11:15:11;101786.41;;;20.27;58.57
250;BME280;109;19.806;-70.704;2023-03-18T11:17:39;101785.38;;;20.34;58.82
250;BME280;109;19.806;-70.704;2023-03-18T11:20:30;101789.69;;;20.41;58.03
250;BME280;109;19.806;-70.704;2023-03-18T11:23:04;101797.44;;;20.55;57.54
250;BME280;109;19.806;-70.704;2023-03-18T11:25:38;101792.00;;;20.61;57.87
250;BME280;109;19.806;-70.704;2023-03-18T11:28:11;101800.69;;;20.69;57.50
250;BME280;109;19.806;-70.704;2023-03-18T11:30:51;101808.47;;;20.79;57.20
250;BME280;109;19.806;-70.704;2023-03-18T11:33:25;101809.38;;;20.78;57.75
250;BME280;109;19.806;-70.704;2023-03-18T11:36:01;101817.00;;;20.95;57.32
250;BME280;109;19.806;-70.704;2023-03-18T11:38:33;101813.97;;;21.13;56.97
250;BME280;109;19.806;-70.704;2023-03-18T11:41:25;101822.59;;;21.24;56.79
250;BME280;109;19.806;-70.704;2023-03-18T11:43:59;101821.63;;;21.29;56.85
250;BME280;109;19.806;-70.704;2023-03-18T11:48:57;101823.09;;;21.42;56.44
250;BME280;109;19.806;-70.704;2023-03-18T11:51:30;101832.34;;;21.64;56.25
250;BME280;109;19.806;-70.704;2023-03-18T11:56:33;101837.66;;;21.64;55.77
250;BME280;109;19.806;-70.704;2023-03-18T11:59:13;101832.72;;;21.86;55.84
250;BME280;109;19.806;-70.704;2023-03-18T12:02:00;101833.41;;;21.96;55.45
250;BME280;109;19.806;-70.704;2023-03-18T12:13:56;101845.91;;;22.61;54.31
250;BME280;109;19.806;-70.704;2023-03-18T12:15:58;101853.22;;;22.53;54.89
250;BME280;109;19.806;-70.704;2023-03-18T12:26:50;101870.88;;;22.59;54.32
250;BME280;109;19.806;-70.704;2023-03-18T12:35:21;101867.03;;;22.69;53.47
250;BME280;109;19.806;-70.704;2023-03-18T12:41:28;101877.03;;;22.93;53.57
250;BME280;109;19.806;-70.704;2023-03-18T12:47:10;101876.56;;;23.10;52.26
250;BME280;109;19.806;-70.704;2023-03-18T12:49:52;101870.19;;;24.01;52.14
250;BME280;109;19.806;-70.704;2023-03-18T12:52:26;101874.44;;;24.34;50.92
250;BME280;109;19.806;-70.704;2023-03-18T12:57:41;101892.91;;;23.60;51.99
250;BME280;109;19.806;-70.704;2023-03-18T13:00:38;101896.66;;;23.82;52.54
250;BME280;109;19.806;-70.704;2023-03-18T13:03:33;101893.06;;;24.62;51.45
250;BME280;109;19.806;-70.704;2023-03-18T13:11:47;101887.72;;;24.10;51.18
250;BME280;109;19.806;-70.704;2023-03-18T13:17:01;101883.81;;;25.21;50.06
250;BME280;109;19.806;-70.704;2023-03-18T13:19:30;101888.06;;;25.50;50.14
250;BME280;109;19.806;-70.704;2023-03-18T13:22:13;101896.59;;;25.37;48.87
250;BME280;109;19.806;-70.704;2023-03-18T13:25:00;101899.63;;;24.80;49.44
250;BME280;109;19.806;-70.704;2023-03-18T13:33:44;101888.22;;;24.73;49.51
250;BME280;109;19.806;-70.704;2023-03-18T13:44:42;101899.03;;;25.89;48.82
250;BME280;109;19.806;-70.704;2023-03-18T13:47:20;101903.53;;;25.88;47.91
250;BME280;109;19.806;-70.704;2023-03-18T13:49:57;101894.97;;;26.22;48.02
250;BME280;109;19.806;-70.704;2023-03-18T13:52:44;101895.13;;;25.97;46.60
250;BME280;109;19.806;-70.704;2023-03-18T13:55:31;101896.69;;;25.79;47.15
250;BME280;109;19.806;-70.704;2023-03-18T14:00:37;101903.09;;;24.57;49.03
250;BME280;109;19.806;-70.704;2023-03-18T14:03:14;101900.94;;;24.67;49.07
250;BME280;109;19.806;-70.704;2023-03-18T14:05:44;101904.59;;;24.39;49.75
250;BME280;109;19.806;-70.704;2023-03-18T14:17:44;101892.97;;;24.13;50.23
250;BME280;109;19.806;-70.704;2023-03-18T14:22:45;101891.06;;;24.18;50.04
250;BME280;109;19.806;-70.704;2023-03-18T14:27:57;101889.88;;;24.78;50.11
250;BME280;109;19.806;-70.704;2023-03-18T14:33:26;101885.13;;;24.59;50.02
250;BME280;109;19.806;-70.704;2023-03-18T14:38:58;101886.81;;;24.88;49.76
250;BME280;109;19.806;-70.704;2023-03-18T14:41:29;101878.16;;;25.28;49.58
250;BME280;109;19.806;-70.704;2023-03-18T14:47:18;101869.97;;;24.85;49.17
250;BME280;109;19.806;-70.704;2023-03-18T14:49:52;101877.72;;;25.40;48.46
250;BME280;109;19.806;-70.704;2023-03-18T14:52:33;101862.13;;;25.95;46.92
250;BME280;109;19.806;-70.704;2023-03-18T14:55:07;101857.22;;;26.27;48.00
250;BME280;109;19.806;-70.704;2023-03-18T14:57:38;101856.16;;;26.09;47.51
250;BME280;109;19.806;-70.704;2023-03-18T15:00:06;101866.13;;;25.85;48.14
250;BME280;109;19.806;-70.704;2023-03-18T15:02:36;101865.69;;;25.51;49.28
250;BME280;109;19.806;-70.704;2023-03-18T15:05:04;101872.69;;;25.55;50.01
250;BME280;109;19.806;-70.704;2023-03-18T15:07:37;101869.34;;;25.71;48.75
250;BME280;109;19.806;-70.704;2023-03-18T15:10:13;101870.75;;;25.80;49.58
250;BME280;109;19.806;-70.704;2023-03-18T15:12:42;101865.66;;;25.96;50.62
250;BME280;109;19.806;-70.704;2023-03-18T15:15:13;101869.81;;;26.03;49.82
250;BME280;109;19.806;-70.704;2023-03-18T15:17:46;101868.25;;;26.19;49.05
250;BME280;109;19.806;-70.704;2023-03-18T15:20:14;101864.53;;;26.01;49.54
250;BME280;109;19.806;-70.704;2023-03-18T15:22:41;101866.78;;;26.32;50.83
250;BME280;109;19.806;-70.704;2023-03-18T15:25:17;101851.72;;;25.88;48.55
250;BME280;109;19.806;-70.704;2023-03-18T15:27:45;101852.44;;;25.69;50.15
250;BME280;109;19.806;-70.704;2023-03-18T15:30:26;101863.59;;;25.59;51.69
250;BME280;109;19.806;-70.704;2023-03-18T15:33:01;101867.91;;;25.39;51.07
250;BME280;109;19.806;-70.704;2023-03-18T15:35:29;101863.47;;;25.15;51.97
250;BME280;109;19.806;-70.704;2023-03-18T15:40:45;101849.44;;;25.55;50.92
250;BME280;109;19.806;-70.704;2023-03-18T15:43:28;101851.19;;;25.56;51.74
250;BME280;109;19.806;-70.704;2023-03-18T15:45:58;101851.28;;;25.53;51.45
250;BME280;109;19.806;-70.704;2023-03-18T15:48:38;101850.84;;;25.64;51.54
250;BME280;109;19.806;-70.704;2023-03-18T15:51:19;101860.66;;;25.65;51.69
250;BME280;109;19.806;-70.704;2023-03-18T15:53:52;101850.22;;;25.35;52.59
250;BME280;109;19.806;-70.704;2023-03-18T15:56:26;101847.47;;;25.14;52.08
250;BME280;109;19.806;-70.704;2023-03-18T15:59:11;101845.31;;;25.00;52.65
250;BME280;109;19.806;-70.704;2023-03-18T16:01:38;101834.78;;;24.95;53.88
250;BME280;109;19.806;-70.704;2023-03-18T16:04:10;101834.66;;;25.22;54.88
250;BME280;109;19.806;-70.704;2023-03-18T16:06:38;101828.81;;;24.87;53.56
250;BME280;109;19.806;-70.704;2023-03-18T16:09:16;101830.75;;;24.84;54.37
250;BME280;109;19.806;-70.704;2023-03-18T16:11:52;101820.34;;;25.23;52.37